Time;durP1;ratioP1;P1;durP2;ratioP2;P2;SDS_P1;SDS_P2;PMS_P1;PMS_P2;Temp;Humidity;BMP_temperature;BMP_pressure;BME280_temperature;BME280_humidity;BME280_pressure;Samples;Min_cycle;Max_cycle;Signal;HPM_P1;HPM_P2
2023/03/10 00:01:25;;;;;;;26.95;16.55;;;4.20;99.90;;;;;;5103403;28;20035;-68
2023/03/10 00:03:52;;;;;;;26.27;15.60;;;4.20;99.90;;;;;;5107628;28;20386;-68
2023/03/10 00:06:21;;;;;;;27.85;15.70;;;4.20;99.90;;;;;;5102789;28;20039;-68
2023/03/10 00:08:47;;;;;;;26.42;15.98;;;4.20;99.90;;;;;;5103647;28;20036;-68
2023/03/10 00:11:13;;;;;;;30.35;16.33;;;4.20;99.90;;;;;;5086404;28;20028;-68
2023/03/10 00:13:38;;;;;;;27.83;15.82;;;4.20;99.90;;;;;;5101259;28;20039;-69
2023/03/10 00:16:05;;;;;;;28.08;16.90;;;4.20;99.90;;;;;;5088983;28;20493;-67
2023/03/10 00:18:31;;;;;;;25.40;15.52;;;4.10;99.90;;;;;;5105697;28;20091;-67
2023/03/10 00:20:57;;;;;;;23.90;13.90;;;4.10;99.90;;;;;;5098535;28;20118;-67
2023/03/10 00:23:24;;;;;;;25.73;15.45;;;4.10;99.90;;;;;;5111328;28;20063;-67
2023/03/10 00:25:59;;;;;;;23.58;14.65;;;4.10;99.90;;;;;;5089060;28;20042;-67
2023/03/10 00:28:25;;;;;;;25.00;14.90;;;4.10;99.90;;;;;;5113214;28;20035;-67
2023/03/10 00:31:03;;;;;;;26.80;16.05;;;4.10;99.90;;;;;;5087584;28;20026;-68
2023/03/10 00:33:30;;;;;;;25.38;14.43;;;4.20;99.90;;;;;;5113876;28;20089;-68
2023/03/10 00:36:09;;;;;;;24.60;15.60;;;4.20;99.90;;;;;;5100821;28;20486;-67
2023/03/10 00:38:35;;;;;;;22.23;13.88;;;4.20;99.90;;;;;;5109252;28;20103;-68
2023/03/10 00:41:03;;;;;;;22.80;14.18;;;4.10;99.90;;;;;;5098401;28;20031;-68
2023/03/10 00:43:29;;;;;;;25.20;14.43;;;4.10;99.90;;;;;;5111471;28;20031;-68
2023/03/10 00:45:55;;;;;;;24.90;15.05;;;4.10;99.90;;;;;;5102708;28;20028;-68
2023/03/10 00:48:21;;;;;;;24.90;15.60;;;4.00;99.90;;;;;;5074757;28;20552;-68
2023/03/10 00:50:47;;;;;;;23.13;14.15;;;4.00;99.90;;;;;;5098901;28;20057;-68
2023/03/10 00:53:13;;;;;;;23.98;14.25;;;4.00;99.90;;;;;;5096054;28;20064;-68
2023/03/10 00:55:38;;;;;;;21.50;14.00;;;4.00;99.90;;;;;;5108428;28;20487;-67
2023/03/10 00:58:04;;;;;;;25.02;15.25;;;4.00;99.90;;;;;;5093920;28;20499;-68
2023/03/10 01:00:30;;;;;;;23.15;14.23;;;4.00;99.90;;;;;;5108360;28;20024;-67
2023/03/10 01:02:55;;;;;;;22.95;14.32;;;4.10;99.90;;;;;;5101108;28;20475;-68
2023/03/10 01:05:21;;;;;;;23.33;13.63;;;4.00;99.90;;;;;;5083176;28;20098;-68
2023/03/10 01:07:47;;;;;;;22.92;13.63;;;4.00;99.90;;;;;;5100245;28;20035;-69
2023/03/10 01:10:12;;;;;;;23.90;13.98;;;4.00;99.90;;;;;;5092672;28;20384;-69
2023/03/10 01:12:38;;;;;;;23.02;14.73;;;4.00;99.90;;;;;;5094498;28;20463;-69
2023/03/10 01:15:05;;;;;;;22.67;13.55;;;4.00;99.90;;;;;;5092896;28;20032;-69
2023/03/10 01:17:30;;;;;;;22.00;13.48;;;4.00;99.90;;;;;;5096877;28;20062;-68
2023/03/10 01:19:56;;;;;;;20.95;12.88;;;3.90;99.90;;;;;;5092736;28;20062;-69
2023/03/10 01:22:22;;;;;;;22.35;13.00;;;3.90;99.90;;;;;;5089383;28;20032;-69
2023/03/10 01:24:48;;;;;;;22.30;13.00;;;3.90;99.90;;;;;;5093927;28;20036;-69
2023/03/10 01:27:13;;;;;;;22.25;14.13;;;3.90;99.90;;;;;;5109266;28;20524;-68
2023/03/10 01:29:39;;;;;;;24.23;13.98;;;4.00;99.90;;;;;;5111616;28;20044;-69
2023/03/10 01:32:05;;;;;;;24.70;13.63;;;3.90;99.90;;;;;;5105437;28;20157;-69
2023/03/10 01:34:31;;;;;;;23.15;13.68;;;3.90;99.90;;;;;;5114861;28;20035;-68
2023/03/10 01:36:57;;;;;;;23.55;13.85;;;3.90;99.90;;;;;;5087544;28;20030;-69
2023/03/10 01:39:22;;;;;;;23.95;14.38;;;3.90;99.90;;;;;;5089609;28;20111;-69
2023/03/10 01:41:48;;;;;;;24.70;14.18;;;3.90;99.90;;;;;;5106875;28;20050;-69
2023/03/10 01:44:16;;;;;;;23.20;13.00;;;3.90;99.90;;;;;;5105558;28;20027;-67
2023/03/10 01:46:50;;;;;;;22.27;12.60;;;4.00;99.90;;;;;;5106247;28;20020;-68
2023/03/10 01:49:18;;;;;;;20.38;12.77;;;3.90;99.90;;;;;;5106862;28;20046;-68
2023/03/10 01:51:49;;;;;;;19.65;12.15;;;3.90;99.90;;;;;;5101255;28;20035;-68
2023/03/10 01:54:19;;;;;;;22.10;14.30;;;3.90;99.90;;;;;;5087714;28;20020;-68
2023/03/10 01:56:46;;;;;;;21.27;13.05;;;3.90;99.90;;;;;;5103616;28;20026;-69
2023/03/10 01:59:13;;;;;;;24.40;12.98;;;3.90;99.90;;;;;;5106101;28;20556;-68
2023/03/10 02:01:39;;;;;;;19.80;12.48;;;3.80;99.90;;;;;;5102726;28;20457;-68
2023/03/10 02:04:22;;;;;;;20.10;12.77;;;3.80;99.90;;;;;;5097521;28;20032;-68
2023/03/10 02:06:50;;;;;;;20.33;11.65;;;3.80;99.90;;;;;;5099313;28;20051;-68
2023/03/10 02:09:17;;;;;;;18.20;11.70;;;3.90;99.90;;;;;;5097340;28;20042;-69
2023/03/10 02:11:45;;;;;;;21.40;13.05;;;3.80;99.90;;;;;;5092152;28;20028;-68
2023/03/10 02:14:11;;;;;;;18.25;11.60;;;3.80;99.90;;;;;;5102007;28;20019;-67
2023/03/10 02:16:37;;;;;;;21.58;12.43;;;3.80;99.90;;;;;;5102215;27;20028;-67
2023/03/10 02:19:07;;;;;;;21.52;13.10;;;3.90;99.90;;;;;;5101466;28;20024;-67
2023/03/10 02:21:42;;;;;;;25.25;14.20;;;3.80;99.90;;;;;;5103236;28;20026;-67
2023/03/10 02:24:33;;;;;;;22.20;12.38;;;3.80;99.90;;;;;;5108808;28;20035;-67
2023/03/10 02:27:03;;;;;;;21.27;11.75;;;3.80;99.90;;;;;;5100286;28;20066;-67
2023/03/10 02:29:36;;;;;;;20.65;11.77;;;3.80;99.90;;;;;;5090777;28;20028;-69
2023/03/10 02:32:03;;;;;;;21.27;11.95;;;3.80;99.90;;;;;;5096613;28;20024;-69
2023/03/10 02:34:28;;;;;;;21.45;12.82;;;3.80;99.90;;;;;;5097452;28;20028;-69
2023/03/10 02:36:54;;;;;;;20.65;12.55;;;3.80;99.90;;;;;;5092330;28;20379;-69
2023/03/10 02:39:20;;;;;;;23.90;13.38;;;3.80;99.90;;;;;;5092190;28;20077;-68
2023/03/10 02:41:46;;;;;;;19.52;12.65;;;3.80;99.90;;;;;;5084396;28;20085;-69
2023/03/10 02:44:15;;;;;;;23.83;14.15;;;3.80;99.90;;;;;;5082457;28;20062;-69
2023/03/10 02:46:41;;;;;;;22.00;12.02;;;3.80;99.90;;;;;;5092144;28;20497;-70
2023/03/10 02:49:11;;;;;;;22.25;13.40;;;3.80;99.90;;;;;;5090945;28;20035;-70
2023/03/10 02:51:42;;;;;;;22.77;12.63;;;3.80;99.90;;;;;;5092620;28;20123;-70
2023/03/10 02:54:09;;;;;;;21.23;12.35;;;3.80;99.90;;;;;;5087628;28;20075;-71
2023/03/10 02:56:36;;;;;;;20.70;12.15;;;3.80;99.90;;;;;;5072518;28;20037;-70
2023/03/10 02:59:04;;;;;;;18.92;12.00;;;3.80;99.90;;;;;;5079550;28;20074;-69
2023/03/10 03:01:30;;;;;;;20.30;11.55;;;3.80;99.90;;;;;;5113012;28;20110;-70
2023/03/10 03:03:56;;;;;;;18.33;10.82;;;3.80;99.90;;;;;;5102160;28;20562;-70
2023/03/10 03:06:21;;;;;;;17.67;10.90;;;3.90;99.90;;;;;;5110837;28;20035;-70
2023/03/10 03:08:47;;;;;;;18.77;11.10;;;3.90;99.90;;;;;;5107126;28;20453;-69
2023/03/10 03:11:13;;;;;;;20.30;12.18;;;3.90;99.90;;;;;;5104236;28;20114;-71
2023/03/10 03:13:39;;;;;;;19.38;11.75;;;3.90;99.90;;;;;;5098715;28;20039;-71
2023/03/10 03:16:07;;;;;;;15.68;9.50;;;3.90;99.90;;;;;;5086039;28;20543;-70
2023/03/10 03:18:32;;;;;;;19.20;10.75;;;4.00;99.90;;;;;;5073393;28;20691;-70
2023/03/10 03:21:06;;;;;;;17.20;10.57;;;4.00;99.90;;;;;;5091762;28;20020;-70
2023/03/10 03:23:32;;;;;;;14.75;9.68;;;4.00;99.90;;;;;;5083286;28;20039;-70
2023/03/10 03:25:58;;;;;;;17.10;10.27;;;4.00;99.90;;;;;;5097045;28;20115;-69
2023/03/10 03:28:24;;;;;;;14.90;9.30;;;4.00;99.90;;;;;;5090863;28;20130;-69
2023/03/10 03:30:49;;;;;;;17.27;10.18;;;3.90;99.90;;;;;;5089012;28;20496;-70
2023/03/10 03:33:15;;;;;;;17.80;10.50;;;3.90;99.90;;;;;;5102114;28;20043;-69
2023/03/10 03:35:42;;;;;;;17.55;9.68;;;3.90;99.90;;;;;;5109627;28;20035;-68
2023/03/10 03:38:08;;;;;;;13.38;8.93;;;3.90;99.90;;;;;;5095748;28;20411;-68
2023/03/10 03:40:35;;;;;;;16.27;9.75;;;3.80;99.90;;;;;;5109955;28;20027;-69
2023/03/10 03:43:01;;;;;;;15.55;9.82;;;3.80;99.90;;;;;;5095259;28;20028;-69
2023/03/10 03:45:28;;;;;;;16.05;9.57;;;3.80;99.90;;;;;;5097665;28;20380;-69
2023/03/10 03:47:54;;;;;;;14.88;8.90;;;3.80;99.90;;;;;;5083537;28;20474;-70
2023/03/10 03:50:20;;;;;;;16.42;10.43;;;3.80;99.90;;;;;;5099821;28;20028;-69
2023/03/10 03:52:46;;;;;;;14.48;9.18;;;3.80;99.90;;;;;;5100841;28;20492;-70
2023/03/10 03:55:15;;;;;;;15.82;9.90;;;3.80;99.90;;;;;;5095188;28;20023;-70
2023/03/10 03:57:40;;;;;;;15.30;9.52;;;3.80;99.90;;;;;;5104303;28;20047;-70
2023/03/10 04:00:11;;;;;;;13.15;8.68;;;3.90;99.90;;;;;;5111582;28;20374;-70
2023/03/10 04:02:36;;;;;;;15.30;9.27;;;3.80;99.90;;;;;;5098359;28;20027;-70
2023/03/10 04:05:03;;;;;;;19.90;9.93;;;3.80;99.90;;;;;;5106591;28;20031;-69
2023/03/10 04:07:29;;;;;;;12.05;8.23;;;3.90;99.90;;;;;;5084181;28;20043;-69
2023/03/10 04:09:55;;;;;;;13.57;8.75;;;3.80;99.90;;;;;;5090371;28;20069;-69
2023/03/10 04:12:20;;;;;;;11.40;7.93;;;3.80;99.90;;;;;;5095196;28;20036;-69
2023/03/10 04:14:46;;;;;;;11.98;7.55;;;3.80;99.90;;;;;;5103041;28;20107;-69
2023/03/10 04:17:12;;;;;;;12.77;8.50;;;3.90;99.90;;;;;;5104707;28;20020;-69
2023/03/10 04:19:37;;;;;;;15.10;9.07;;;3.90;99.90;;;;;;5103395;28;20032;-69
2023/03/10 04:22:03;;;;;;;13.27;8.32;;;3.90;99.90;;;;;;5080726;28;20023;-69
2023/03/10 04:24:28;;;;;;;12.25;8.20;;;3.90;99.90;;;;;;5106937;28;20035;-69
2023/03/10 04:26:54;;;;;;;11.43;7.68;;;3.90;99.90;;;;;;5103703;28;20020;-69
2023/03/10 04:29:23;;;;;;;10.75;7.50;;;3.90;99.90;;;;;;5093296;28;20032;-69
2023/03/10 04:31:50;;;;;;;14.18;8.07;;;3.90;99.90;;;;;;5093135;28;20036;-69
2023/03/10 04:34:16;;;;;;;13.95;8.32;;;4.00;99.90;;;;;;5098359;28;20494;-69
2023/03/10 04:36:41;;;;;;;13.65;8.05;;;4.00;99.90;;;;;;5095213;28;20081;-69
2023/03/10 04:39:08;;;;;;;15.35;9.55;;;4.00;99.90;;;;;;5108827;28;20063;-69
2023/03/10 04:41:35;;;;;;;15.70;8.95;;;4.00;99.90;;;;;;5100442;28;20039;-69
2023/03/10 04:44:01;;;;;;;13.23;8.38;;;4.10;99.90;;;;;;5103956;28;20028;-70
2023/03/10 04:46:27;;;;;;;13.95;8.52;;;4.10;99.90;;;;;;5095895;28;20024;-70
2023/03/10 04:48:54;;;;;;;12.65;8.40;;;4.10;99.90;;;;;;5094018;28;20103;-69
2023/03/10 04:51:20;;;;;;;13.88;8.27;;;4.20;99.90;;;;;;5096069;28;20028;-71
2023/03/10 04:53:46;;;;;;;10.10;7.15;;;4.20;99.90;;;;;;5108054;28;20146;-69
2023/03/10 04:56:13;;;;;;;11.60;7.47;;;4.20;99.90;;;;;;5093678;28;20024;-69
2023/03/10 04:58:39;;;;;;;12.13;7.97;;;4.20;99.90;;;;;;5096174;28;20048;-69
2023/03/10 05:01:10;;;;;;;12.02;7.45;;;4.20;99.90;;;;;;5092245;28;20117;-69
2023/03/10 05:03:36;;;;;;;17.67;8.48;;;4.20;99.90;;;;;;5073405;28;20032;-70
2023/03/10 05:06:02;;;;;;;16.23;10.45;;;4.20;99.90;;;;;;5095386;28;20020;-69
2023/03/10 05:08:28;;;;;;;14.90;10.00;;;4.20;99.90;;;;;;5074368;28;20067;-70
2023/03/10 05:10:53;;;;;;;13.02;9.07;;;4.10;99.90;;;;;;5097201;28;20025;-70
2023/03/10 05:13:19;;;;;;;13.50;8.93;;;4.00;99.90;;;;;;5104032;28;20036;-70
2023/03/10 05:15:45;;;;;;;12.75;8.70;;;4.00;99.90;;;;;;5095006;28;20129;-69
2023/03/10 05:18:11;;;;;;;16.20;9.90;;;4.00;99.90;;;;;;5111336;28;20032;-70
2023/03/10 05:20:37;;;;;;;10.18;7.32;;;4.00;99.90;;;;;;5096019;28;20024;-70
2023/03/10 05:23:03;;;;;;;14.05;8.35;;;4.00;99.90;;;;;;5084321;28;20086;-70
2023/03/10 05:25:29;;;;;;;12.38;8.48;;;4.00;99.90;;;;;;5102764;28;20020;-69
2023/03/10 05:27:54;;;;;;;13.93;8.60;;;4.00;99.90;;;;;;5098093;28;20525;-69
2023/03/10 05:30:20;;;;;;;14.00;9.27;;;4.00;99.90;;;;;;5100785;28;20366;-70
2023/03/10 05:32:46;;;;;;;13.90;9.75;;;4.00;99.90;;;;;;5098409;28;20031;-70
2023/03/10 05:35:12;;;;;;;13.63;8.40;;;4.00;99.90;;;;;;5104471;28;20023;-70
2023/03/10 05:37:40;;;;;;;13.32;8.13;;;4.00;99.90;;;;;;5106615;28;20032;-70
2023/03/10 05:40:08;;;;;;;12.77;8.35;;;4.00;99.90;;;;;;5095252;28;20171;-70
2023/03/10 05:42:34;;;;;;;12.45;8.20;;;4.00;99.90;;;;;;5074031;28;20124;-70
2023/03/10 05:45:00;;;;;;;12.23;8.05;;;4.00;99.90;;;;;;5100716;28;20027;-70
2023/03/10 05:47:25;;;;;;;12.20;8.65;;;4.00;99.90;;;;;;5089909;28;20592;-70
2023/03/10 05:49:51;;;;;;;16.25;9.60;;;4.00;99.90;;;;;;5100151;28;20642;-70
2023/03/10 05:52:16;;;;;;;14.18;8.77;;;4.10;99.90;;;;;;5114500;28;20379;-70
2023/03/10 05:54:42;;;;;;;12.52;8.73;;;4.10;99.90;;;;;;5105980;28;20084;-70
2023/03/10 05:57:08;;;;;;;15.98;10.60;;;4.10;99.90;;;;;;5106110;28;20055;-70
2023/03/10 05:59:33;;;;;;;18.05;11.60;;;4.20;99.90;;;;;;5091436;28;20421;-69
2023/03/10 06:01:59;;;;;;;16.13;10.18;;;4.20;99.90;;;;;;5100217;28;20052;-69
2023/03/10 06:04:27;;;;;;;15.90;10.90;;;4.20;99.90;;;;;;5099984;28;20036;-70
2023/03/10 06:06:54;;;;;;;14.32;9.60;;;4.10;99.90;;;;;;5108892;28;20032;-70
2023/03/10 06:09:20;;;;;;;17.38;10.75;;;4.20;99.90;;;;;;5096883;28;20035;-69
2023/03/10 06:11:46;;;;;;;13.88;9.18;;;4.30;99.90;;;;;;5089482;28;20024;-69
2023/03/10 06:14:12;;;;;;;11.98;8.50;;;4.20;99.90;;;;;;5093295;28;20556;-70
2023/03/10 06:16:37;;;;;;;12.65;8.80;;;4.20;99.90;;;;;;5096375;28;20055;-70
2023/03/10 06:19:03;;;;;;;12.60;8.40;;;4.30;99.90;;;;;;5090301;28;20085;-70
2023/03/10 06:21:28;;;;;;;14.43;9.75;;;4.40;99.90;;;;;;5106573;28;20154;-70
2023/03/10 06:23:54;;;;;;;13.77;8.43;;;4.40;99.90;;;;;;5110796;28;20020;-71
2023/03/10 06:26:21;;;;;;;12.00;8.18;;;4.40;99.90;;;;;;5070968;28;20028;-68
2023/03/10 06:28:47;;;;;;;13.57;9.15;;;4.40;99.90;;;;;;5082153;28;20085;-68
2023/03/10 06:31:19;;;;;;;12.95;9.40;;;4.40;99.90;;;;;;5105369;28;20464;-68
2023/03/10 06:33:45;;;;;;;14.73;9.35;;;4.50;99.90;;;;;;5084779;28;20055;-68
2023/03/10 06:36:12;;;;;;;14.57;9.13;;;4.40;99.90;;;;;;5107718;28;20051;-68
2023/03/10 06:38:38;;;;;;;16.35;10.07;;;4.40;99.90;;;;;;5108876;28;20032;-69
2023/03/10 06:41:04;;;;;;;17.02;10.48;;;4.40;99.90;;;;;;5106471;28;20032;-68
2023/03/10 06:43:31;;;;;;;14.90;9.07;;;4.50;99.90;;;;;;5108393;28;20289;-68
2023/03/10 06:45:56;;;;;;;14.68;9.65;;;4.60;99.90;;;;;;5086618;28;20078;-67
2023/03/10 06:48:22;;;;;;;18.17;9.25;;;4.50;99.90;;;;;;5085561;28;20483;-67
2023/03/10 06:50:48;;;;;;;12.18;8.70;;;4.60;99.90;;;;;;5102332;28;20059;-67
2023/03/10 06:53:15;;;;;;;13.32;8.38;;;4.60;99.90;;;;;;5099974;28;20042;-67
2023/03/10 06:55:41;;;;;;;13.18;9.20;;;4.70;99.90;;;;;;5091950;28;20073;-66
2023/03/10 06:58:07;;;;;;;13.25;8.82;;;4.60;99.90;;;;;;5103355;28;20071;-67
2023/03/10 07:00:32;;;;;;;13.02;9.05;;;4.70;99.90;;;;;;5105411;28;20475;-69
2023/03/10 07:02:58;;;;;;;13.70;9.05;;;4.70;99.90;;;;;;5086745;28;20035;-68
2023/03/10 07:05:26;;;;;;;13.73;8.98;;;4.70;99.90;;;;;;5098798;28;20043;-68
2023/03/10 07:07:53;;;;;;;13.07;8.50;;;4.70;99.90;;;;;;5089469;28;20112;-68
2023/03/10 07:10:18;;;;;;;11.48;8.20;;;4.80;99.90;;;;;;5097416;28;20043;-68
2023/03/10 07:12:44;;;;;;;13.18;9.02;;;4.80;99.90;;;;;;5092709;28;20406;-68
2023/03/10 07:15:10;;;;;;;15.23;10.02;;;4.80;99.90;;;;;;5089432;28;20058;-67
2023/03/10 07:17:36;;;;;;;15.02;9.90;;;4.80;99.90;;;;;;5077891;28;20147;-67
2023/03/10 07:20:03;;;;;;;17.30;10.77;;;4.90;99.90;;;;;;5090208;28;20538;-68
2023/03/10 07:22:29;;;;;;;15.27;10.18;;;4.80;99.90;;;;;;5110786;28;20051;-68
2023/03/10 07:24:55;;;;;;;18.77;12.98;;;4.90;99.90;;;;;;5100097;28;20058;-68
2023/03/10 07:27:21;;;;;;;18.58;12.02;;;5.00;99.90;;;;;;5110644;28;20074;-68
2023/03/10 07:29:46;;;;;;;20.20;12.25;;;5.00;99.90;;;;;;5093897;28;20033;-67
2023/03/10 07:32:12;;;;;;;17.45;12.00;;;5.00;99.90;;;;;;5075086;28;20025;-68
2023/03/10 07:34:37;;;;;;;20.40;13.82;;;5.00;99.90;;;;;;5086765;28;20501;-67
2023/03/10 07:37:03;;;;;;;16.23;11.07;;;5.00;99.90;;;;;;5093611;28;20387;-67
2023/03/10 07:39:29;;;;;;;14.35;9.57;;;5.10;99.90;;;;;;5107747;28;20043;-67
2023/03/10 07:41:54;;;;;;;14.13;9.98;;;5.10;99.90;;;;;;5088466;28;20602;-66
2023/03/10 07:44:20;;;;;;;15.52;9.77;;;5.20;99.90;;;;;;5086772;28;20036;-67
2023/03/10 07:46:46;;;;;;;12.60;8.93;;;5.20;99.90;;;;;;5098711;28;20020;-66
2023/03/10 07:49:11;;;;;;;13.13;9.75;;;5.20;99.90;;;;;;5100390;28;20443;-66
2023/03/10 07:51:37;;;;;;;12.80;9.20;;;5.30;99.90;;;;;;5107178;28;20031;-67
2023/03/10 07:54:03;;;;;;;13.35;9.30;;;5.30;99.90;;;;;;5096437;28;20398;-66
2023/03/10 07:56:28;;;;;;;15.00;9.18;;;5.40;99.90;;;;;;5102912;28;20042;-67
2023/03/10 07:58:54;;;;;;;12.45;8.90;;;5.40;99.90;;;;;;5105681;28;20040;-66
2023/03/10 08:01:21;;;;;;;13.10;8.18;;;5.40;99.90;;;;;;5097020;28;20028;-67
2023/03/10 08:03:47;;;;;;;12.20;8.82;;;5.50;99.90;;;;;;5098614;28;20085;-67
2023/03/10 08:06:18;;;;;;;14.20;10.00;;;5.50;99.90;;;;;;5100777;28;20030;-66
2023/03/10 08:08:44;;;;;;;12.15;8.68;;;5.60;99.90;;;;;;5081602;28;20039;-67
2023/03/10 08:11:10;;;;;;;11.23;8.25;;;5.60;99.90;;;;;;5090782;28;20383;-67
2023/03/10 08:13:36;;;;;;;12.07;8.48;;;5.60;99.90;;;;;;5090659;28;20102;-67
2023/03/10 08:16:02;;;;;;;12.95;8.85;;;5.60;99.90;;;;;;5096647;28;20098;-67
2023/03/10 08:18:29;;;;;;;15.23;9.40;;;5.70;99.90;;;;;;5096023;28;20027;-67
2023/03/10 08:20:56;;;;;;;13.73;8.88;;;5.70;99.90;;;;;;5107523;28;20024;-72
2023/03/10 08:23:22;;;;;;;13.40;8.63;;;5.80;99.90;;;;;;5103852;28;20081;-72
2023/03/10 08:25:48;;;;;;;15.00;9.65;;;5.90;99.90;;;;;;5104144;28;20478;-72
2023/03/10 08:28:14;;;;;;;11.55;8.30;;;5.90;99.90;;;;;;5091949;28;20122;-71
2023/03/10 08:30:40;;;;;;;13.40;9.68;;;6.00;99.90;;;;;;5078143;28;20560;-71
2023/03/10 08:33:09;;;;;;;12.98;8.90;;;6.10;99.90;;;;;;5103287;28;20028;-71
2023/03/10 08:35:36;;;;;;;13.70;9.50;;;6.20;99.90;;;;;;5083045;28;20023;-70
2023/03/10 08:38:03;;;;;;;13.95;9.20;;;6.30;99.90;;;;;;5110695;28;20039;-71
2023/03/10 08:40:28;;;;;;;14.13;9.93;;;6.30;99.90;;;;;;5095064;28;20028;-70
2023/03/10 08:42:54;;;;;;;15.73;10.52;;;6.30;99.90;;;;;;5082738;28;20379;-71
2023/03/10 08:45:20;;;;;;;14.13;10.20;;;6.30;99.90;;;;;;5086361;28;20024;-71
2023/03/10 08:47:45;;;;;;;15.10;10.60;;;6.40;99.90;;;;;;5106383;28;20414;-71
2023/03/10 08:50:12;;;;;;;13.65;10.27;;;6.40;99.90;;;;;;5096795;28;20472;-71
2023/03/10 08:52:39;;;;;;;13.40;10.40;;;6.50;99.90;;;;;;5093135;28;20039;-71
2023/03/10 08:55:05;;;;;;;13.60;9.93;;;6.50;99.90;;;;;;5092103;28;20035;-71
2023/03/10 08:57:31;;;;;;;15.27;10.52;;;6.60;99.90;;;;;;5112619;28;20047;-71
2023/03/10 08:59:57;;;;;;;15.05;11.07;;;6.80;99.90;;;;;;5095047;28;20031;-70
2023/03/10 09:02:23;;;;;;;15.65;11.10;;;6.90;99.90;;;;;;5088133;28;20039;-69
2023/03/10 09:04:49;;;;;;;14.00;10.82;;;6.90;99.90;;;;;;5086005;28;20400;-69
2023/03/10 09:07:16;;;;;;;16.98;10.35;;;7.00;99.90;;;;;;5105632;28;20046;-69
2023/03/10 09:09:41;;;;;;;15.15;11.07;;;7.10;99.90;;;;;;5105437;28;20034;-70
2023/03/10 09:12:08;;;;;;;18.80;11.35;;;7.10;99.90;;;;;;5094896;28;20016;-68
2023/03/10 09:14:34;;;;;;;16.98;11.13;;;7.20;99.90;;;;;;5093407;28;20391;-70
2023/03/10 09:17:00;;;;;;;17.50;11.73;;;7.30;99.90;;;;;;5094107;28;20020;-70
2023/03/10 09:19:26;;;;;;;17.45;12.02;;;7.40;99.90;;;;;;5101457;28;20118;-70
2023/03/10 09:21:52;;;;;;;16.63;11.95;;;7.40;99.90;;;;;;5094859;28;20423;-70
2023/03/10 09:24:18;;;;;;;18.95;11.23;;;7.40;99.90;;;;;;5094547;28;20028;-70
2023/03/10 09:26:44;;;;;;;17.80;12.27;;;7.50;99.90;;;;;;5085775;28;20028;-69
2023/03/10 09:29:10;;;;;;;19.45;12.77;;;7.60;99.90;;;;;;5076238;28;20402;-69
2023/03/10 09:31:38;;;;;;;19.45;12.13;;;7.60;99.90;;;;;;5090363;28;20103;-69
2023/03/10 09:34:04;;;;;;;15.25;11.23;;;7.70;99.90;;;;;;5086296;28;20032;-69
2023/03/10 09:36:30;;;;;;;16.85;10.90;;;7.70;99.90;;;;;;5073814;28;20020;-68
2023/03/10 09:38:57;;;;;;;18.38;11.80;;;7.80;99.90;;;;;;5081058;28;20025;-69
2023/03/10 09:41:44;;;;;;;15.27;11.63;;;7.90;99.90;;;;;;5073280;28;20028;-69
2023/03/10 09:44:22;;;;;;;17.40;12.35;;;8.00;99.90;;;;;;5073757;28;20028;-69
2023/03/10 09:47:14;;;;;;;18.90;13.02;;;8.10;99.90;;;;;;5096760;28;20606;-69
2023/03/10 09:50:09;;;;;;;19.00;13.57;;;8.20;99.90;;;;;;5082095;28;20047;-69
2023/03/10 09:52:45;;;;;;;21.50;13.77;;;8.40;99.90;;;;;;5062168;28;20094;-69
2023/03/10 09:55:32;;;;;;;23.33;16.45;;;8.50;99.90;;;;;;5092241;28;20025;-70
2023/03/10 09:57:58;;;;;;;24.65;15.45;;;8.60;99.90;;;;;;5107345;28;20104;-69
2023/03/10 10:00:38;;;;;;;25.00;16.65;;;8.60;99.90;;;;;;5090628;28;20027;-69
2023/03/10 10:03:18;;;;;;;25.83;18.45;;;8.70;99.90;;;;;;5106951;28;20031;-70
2023/03/10 10:05:46;;;;;;;27.23;17.63;;;8.70;99.90;;;;;;5094415;28;20028;-70
2023/03/10 10:08:19;;;;;;;24.30;16.02;;;8.80;99.90;;;;;;5095208;28;20028;-70
2023/03/10 10:10:50;;;;;;;23.85;16.20;;;8.90;99.90;;;;;;5098119;28;20024;-70
2023/03/10 10:13:16;;;;;;;22.73;16.55;;;9.00;99.90;;;;;;5092897;28;20036;-70
2023/03/10 10:15:55;;;;;;;23.52;16.42;;;9.10;99.90;;;;;;5105476;28;20372;-70
2023/03/10 10:18:30;;;;;;;23.75;16.98;;;9.20;99.90;;;;;;5083934;28;20032;-69
2023/03/10 10:21:05;;;;;;;23.80;17.02;;;9.30;99.90;;;;;;5093536;28;20027;-71
2023/03/10 10:23:39;;;;;;;21.95;16.02;;;9.40;99.90;;;;;;5090413;28;20036;-70
2023/03/10 10:26:12;;;;;;;23.55;15.70;;;9.50;99.90;;;;;;5093522;28;20107;-69
2023/03/10 10:28:42;;;;;;;22.02;16.83;;;9.60;99.90;;;;;;5088606;28;20124;-69
2023/03/10 10:31:11;;;;;;;24.05;16.38;;;9.60;99.90;;;;;;5079228;28;20024;-70
2023/03/10 10:34:00;;;;;;;22.83;16.63;;;9.70;99.90;;;;;;5107905;28;20042;-69
2023/03/10 10:36:32;;;;;;;21.58;15.30;;;9.80;99.90;;;;;;5083581;28;20032;-69
2023/03/10 10:38:58;;;;;;;21.80;15.52;;;9.80;99.90;;;;;;5070911;28;20063;-70
2023/03/10 10:41:33;;;;;;;24.05;16.02;;;9.90;99.90;;;;;;5088475;28;20027;-69
2023/03/10 10:44:07;;;;;;;22.67;15.85;;;10.00;99.90;;;;;;5091626;28;20059;-69
2023/03/10 10:46:33;;;;;;;20.13;14.93;;;10.00;99.90;;;;;;5090913;28;20478;-70
2023/03/10 10:49:18;;;;;;;19.88;14.60;;;10.10;99.90;;;;;;5095669;28;20040;-70
2023/03/10 10:51:57;;;;;;;17.83;13.98;;;10.10;99.90;;;;;;5079127;28;20024;-69
2023/03/10 10:54:31;;;;;;;18.10;13.23;;;10.20;99.90;;;;;;5094147;28;20053;-69
2023/03/10 10:56:59;;;;;;;19.10;11.90;;;10.30;99.90;;;;;;5108316;28;20015;-70
2023/03/10 10:59:32;;;;;;;15.13;11.40;;;10.30;99.90;;;;;;5089173;28;20036;-71
2023/03/10 11:02:17;;;;;;;17.63;10.38;;;10.40;99.90;;;;;;5094866;28;20375;-70
2023/03/10 11:04:44;;;;;;;;;;;10.50;99.90;;;;;;5093578;28;20510;-69
2023/03/10 11:07:15;;;;;;;18.10;10.98;;;10.50;99.90;;;;;;5082977;28;19940;-69
2023/03/10 11:09:41;;;;;;;15.52;10.15;;;10.60;99.90;;;;;;5079621;28;20039;-69
2023/03/10 11:12:24;;;;;;;18.75;11.98;;;10.70;99.90;;;;;;5092318;28;20382;-69
2023/03/10 11:15:21;;;;;;;18.10;11.00;;;10.70;99.90;;;;;;5072798;28;20476;-70
2023/03/10 11:17:53;;;;;;;13.20;10.18;;;10.80;99.90;;;;;;5089422;28;20383;-69
2023/03/10 11:20:31;;;;;;;15.27;10.70;;;10.80;99.90;;;;;;5099364;28;20043;-69
2023/03/10 11:23:23;;;;;;;12.57;10.02;;;10.80;99.90;;;;;;5108608;28;20027;-70
2023/03/10 11:26:07;;;;;;;12.63;10.10;;;10.90;99.90;;;;;;5098267;28;20357;-70
2023/03/10 11:28:55;;;;;;;14.63;9.88;;;10.90;99.90;;;;;;5082004;28;20036;-70
2023/03/10 11:31:47;;;;;;;14.52;10.77;;;10.90;99.90;;;;;;5079189;28;20031;-70
2023/03/10 11:34:29;;;;;;;14.13;9.65;;;10.90;99.90;;;;;;5084058;28;20063;-70
2023/03/10 11:37:39;;;;;;;16.95;10.35;;;10.90;99.90;;;;;;5102180;28;20430;-72
2023/03/10 11:40:42;;;;;;;13.77;8.77;;;10.90;99.90;;;;;;5101005;27;20034;-70
2023/03/10 11:43:19;;;;;;;16.20;10.50;;;10.90;99.90;;;;;;5095841;28;20027;-70
2023/03/10 11:45:53;;;;;;;13.05;10.18;;;10.90;99.90;;;;;;5095228;28;20039;-69
2023/03/10 11:48:30;;;;;;;11.52;9.45;;;10.90;99.90;;;;;;5091421;28;20043;-70
2023/03/10 11:51:02;;;;;;;14.27;10.25;;;10.90;99.90;;;;;;5100775;28;20027;-70
2023/03/10 11:53:37;;;;;;;14.38;11.10;;;10.80;99.90;;;;;;5093143;28;20116;-70
2023/03/10 11:56:05;;;;;;;15.80;11.43;;;10.80;99.90;;;;;;5099456;28;20051;-70
2023/03/10 11:58:52;;;;;;;15.90;10.80;;;10.80;99.90;;;;;;5096487;28;20076;-69
2023/03/10 12:01:37;;;;;;;13.25;10.40;;;10.80;99.90;;;;;;5105712;28;20111;-69
2023/03/10 12:04:09;;;;;;;16.27;10.48;;;10.80;99.90;;;;;;5106840;28;20451;-69
2023/03/10 12:06:49;;;;;;;13.02;10.15;;;10.80;99.90;;;;;;5105140;28;20097;-69
2023/03/10 12:09:33;;;;;;;15.82;10.95;;;10.80;99.90;;;;;;5071153;28;20059;-69
2023/03/10 12:12:00;;;;;;;12.88;9.75;;;10.80;99.90;;;;;;5093904;28;20475;-69
2023/03/10 12:14:26;;;;;;;14.15;9.95;;;10.80;99.90;;;;;;5109596;28;20028;-69
2023/03/10 12:16:53;;;;;;;10.05;7.97;;;10.80;99.90;;;;;;5101169;28;20034;-69
2023/03/10 12:19:18;;;;;;;12.88;9.02;;;10.80;99.90;;;;;;5078054;28;20036;-69
2023/03/10 12:21:46;;;;;;;12.48;9.10;;;10.80;99.90;;;;;;5091668;28;20024;-69
2023/03/10 12:24:45;;;;;;;11.55;8.63;;;10.80;99.90;;;;;;5100872;28;20142;-69
2023/03/10 12:27:10;;;;;;;10.63;8.07;;;10.90;99.90;;;;;;5103232;28;20123;-69
2023/03/10 12:29:38;;;;;;;11.63;7.93;;;11.00;99.90;;;;;;5104012;28;20123;-69
2023/03/10 12:32:04;;;;;;;10.57;7.95;;;11.00;99.90;;;;;;5109029;28;20027;-69
2023/03/10 12:34:31;;;;;;;11.70;8.52;;;11.10;99.90;;;;;;5099082;28;20039;-69
2023/03/10 12:37:07;;;;;;;10.25;8.07;;;11.10;99.90;;;;;;5104943;28;20027;-70
2023/03/10 12:39:51;;;;;;;10.15;7.35;;;11.10;99.90;;;;;;5099808;28;20032;-69
2023/03/10 12:42:34;;;;;;;10.02;6.78;;;11.10;99.90;;;;;;5102539;28;20032;-68
2023/03/10 12:45:14;;;;;;;8.02;6.22;;;11.10;99.90;;;;;;5099155;28;20421;-69
2023/03/10 12:47:42;;;;;;;6.95;5.47;;;11.10;99.90;;;;;;5103770;28;20032;-69
2023/03/10 12:50:29;;;;;;;7.22;5.25;;;11.20;99.90;;;;;;5098923;28;20029;-70